sensor_id;sensor_type;location;lat;lon;timestamp;P1;durP1;ratioP1;P2;durP2;ratioP2
5519;SDS011;2782;52.362;10.012;2023-01-01T00:00:45;10.15;;;3.30;;
5519;SDS011;2782;52.362;10.012;2023-01-01T00:01:47;15.32;;;3.83;;
5519;SDS011;2782;52.362;10.012;2023-01-01T00:02:48;14.63;;;2.80;;
5519;SDS011;2782;52.362;10.012;2023-01-01T00:03:50;11.40;;;3.03;;
5519;SDS011;2782;52.362;10.012;2023-01-01T00:04:52;16.88;;;3.40;;
5519;SDS011;2782;52.362;10.012;2023-01-01T00:05:52;14.90;;;3.37;;
5519;SDS011;2782;52.362;10.012;2023-01-01T00:06:54;13.30;;;2.92;;
5519;SDS011;2782;52.362;10.012;2023-01-01T00:07:55;23.43;;;3.17;;
5519;SDS011;2782;52.362;10.012;2023-01-01T00:08:56;23.55;;;4.10;;
5519;SDS011;2782;52.362;10.012;2023-01-01T00:10:16;17.25;;;3.50;;
5519;SDS011;2782;52.362;10.012;2023-01-01T00:11:28;8.60;;;4.13;;
5519;SDS011;2782;52.362;10.012;2023-01-01T00:12:30;10.93;;;3.40;;
5519;SDS011;2782;52.362;10.012;2023-01-01T00:13:32;19.70;;;3.45;;
5519;SDS011;2782;52.362;10.012;2023-01-01T00:14:33;9.65;;;3.45;;
5519;SDS011;2782;52.362;10.012;2023-01-01T00:15:35;20.13;;;3.80;;
5519;SDS011;2782;52.362;10.012;2023-01-01T00:16:38;12.57;;;3.55;;
5519;SDS011;2782;52.362;10.012;2023-01-01T00:17:40;13.13;;;3.15;;
5519;SDS011;2782;52.362;10.012;2023-01-01T00:18:40;8.80;;;3.20;;
5519;SDS011;2782;52.362;10.012;2023-01-01T00:19:42;16.73;;;3.90;;
5519;SDS011;2782;52.362;10.012;2023-01-01T00:20:42;20.03;;;3.13;;
5519;SDS011;2782;52.362;10.012;2023-01-01T00:21:44;14.07;;;3.38;;
5519;SDS011;2782;52.362;10.012;2023-01-01T00:22:46;9.70;;;2.92;;
5519;SDS011;2782;52.362;10.012;2023-01-01T00:23:47;12.70;;;3.20;;
5519;SDS011;2782;52.362;10.012;2023-01-01T00:24:48;9.10;;;3.37;;
5519;SDS011;2782;52.362;10.012;2023-01-01T00:25:50;17.38;;;3.70;;
5519;SDS011;2782;52.362;10.012;2023-01-01T00:26:51;10.73;;;3.40;;
5519;SDS011;2782;52.362;10.012;2023-01-01T00:27:52;11.23;;;4.47;;
5519;SDS011;2782;52.362;10.012;2023-01-01T00:28:54;15.10;;;4.30;;
5519;SDS011;2782;52.362;10.012;2023-01-01T00:29:55;9.80;;;3.10;;
5519;SDS011;2782;52.362;10.012;2023-01-01T00:30:56;9.68;;;4.05;;
5519;SDS011;2782;52.362;10.012;2023-01-01T00:31:59;11.73;;;3.38;;
5519;SDS011;2782;52.362;10.012;2023-01-01T00:33:01;8.32;;;2.95;;
5519;SDS011;2782;52.362;10.012;2023-01-01T00:34:02;10.55;;;3.42;;
5519;SDS011;2782;52.362;10.012;2023-01-01T00:35:03;12.20;;;3.10;;
5519;SDS011;2782;52.362;10.012;2023-01-01T00:36:06;14.02;;;3.20;;
5519;SDS011;2782;52.362;10.012;2023-01-01T00:37:07;11.60;;;3.65;;
5519;SDS011;2782;52.362;10.012;2023-01-01T00:38:08;13.85;;;4.30;;
5519;SDS011;2782;52.362;10.012;2023-01-01T00:39:09;9.37;;;3.20;;
5519;SDS011;2782;52.362;10.012;2023-01-01T00:40:11;15.98;;;3.55;;
5519;SDS011;2782;52.362;10.012;2023-01-01T00:41:13;8.18;;;3.13;;
5519;SDS011;2782;52.362;10.012;2023-01-01T00:42:15;12.98;;;3.70;;
5519;SDS011;2782;52.362;10.012;2023-01-01T00:43:17;11.68;;;3.38;;
5519;SDS011;2782;52.362;10.012;2023-01-01T00:44:18;14.98;;;4.13;;
5519;SDS011;2782;52.362;10.012;2023-01-01T00:45:19;16.00;;;4.20;;
5519;SDS011;2782;52.362;10.012;2023-01-01T00:46:21;10.95;;;3.80;;
5519;SDS011;2782;52.362;10.012;2023-01-01T00:47:23;8.00;;;3.13;;
5519;SDS011;2782;52.362;10.012;2023-01-01T00:48:24;8.63;;;3.45;;
5519;SDS011;2782;52.362;10.012;2023-01-01T00:49:25;8.37;;;3.30;;
5519;SDS011;2782;52.362;10.012;2023-01-01T00:50:27;12.68;;;3.40;;
5519;SDS011;2782;52.362;10.012;2023-01-01T00:51:28;9.20;;;3.93;;
5519;SDS011;2782;52.362;10.012;2023-01-01T00:52:30;10.65;;;4.00;;
5519;SDS011;2782;52.362;10.012;2023-01-01T00:53:30;12.13;;;3.50;;
5519;SDS011;2782;52.362;10.012;2023-01-01T00:54:32;13.77;;;4.35;;
5519;SDS011;2782;52.362;10.012;2023-01-01T00:55:33;8.10;;;3.10;;
5519;SDS011;2782;52.362;10.012;2023-01-01T00:56:34;13.45;;;3.95;;
5519;SDS011;2782;52.362;10.012;2023-01-01T00:57:35;9.73;;;4.17;;
5519;SDS011;2782;52.362;10.012;2023-01-01T00:58:37;8.38;;;3.10;;
5519;SDS011;2782;52.362;10.012;2023-01-01T00:59:37;9.80;;;3.30;;
5519;SDS011;2782;52.362;10.012;2023-01-01T01:00:39;8.90;;;3.85;;
5519;SDS011;2782;52.362;10.012;2023-01-01T01:01:39;19.97;;;4.70;;
5519;SDS011;2782;52.362;10.012;2023-01-01T01:02:42;10.85;;;4.22;;
5519;SDS011;2782;52.362;10.012;2023-01-01T01:03:43;11.82;;;3.80;;
5519;SDS011;2782;52.362;10.012;2023-01-01T01:04:44;9.77;;;3.80;;
5519;SDS011;2782;52.362;10.012;2023-01-01T01:05:45;13.13;;;3.47;;
5519;SDS011;2782;52.362;10.012;2023-01-01T01:06:47;15.13;;;3.78;;
5519;SDS011;2782;52.362;10.012;2023-01-01T01:07:47;8.60;;;4.20;;
5519;SDS011;2782;52.362;10.012;2023-01-01T01:08:49;11.55;;;3.95;;
5519;SDS011;2782;52.362;10.012;2023-01-01T01:09:50;10.20;;;3.77;;
5519;SDS011;2782;52.362;10.012;2023-01-01T01:10:52;13.35;;;4.60;;
5519;SDS011;2782;52.362;10.012;2023-01-01T01:11:53;13.48;;;4.03;;
5519;SDS011;2782;52.362;10.012;2023-01-01T01:12:54;10.65;;;3.55;;
5519;SDS011;2782;52.362;10.012;2023-01-01T01:13:55;10.50;;;3.60;;
5519;SDS011;2782;52.362;10.012;2023-01-01T01:14:57;9.68;;;3.47;;
5519;SDS011;2782;52.362;10.012;2023-01-01T01:15:57;11.33;;;3.73;;
5519;SDS011;2782;52.362;10.012;2023-01-01T01:16:59;13.70;;;3.70;;
5519;SDS011;2782;52.362;10.012;2023-01-01T01:18:02;7.65;;;3.80;;
5519;SDS011;2782;52.362;10.012;2023-01-01T01:19:03;11.80;;;3.80;;
5519;SDS011;2782;52.362;10.012;2023-01-01T01:20:06;13.30;;;3.85;;
5519;SDS011;2782;52.362;10.012;2023-01-01T01:21:08;13.05;;;3.80;;
5519;SDS011;2782;52.362;10.012;2023-01-01T01:22:10;9.75;;;3.80;;
5519;SDS011;2782;52.362;10.012;2023-01-01T01:23:10;13.37;;;3.60;;
5519;SDS011;2782;52.362;10.012;2023-01-01T01:24:12;8.80;;;4.03;;
5519;SDS011;2782;52.362;10.012;2023-01-01T01:25:13;12.13;;;3.90;;
5519;SDS011;2782;52.362;10.012;2023-01-01T01:26:15;7.40;;;3.63;;
5519;SDS011;2782;52.362;10.012;2023-01-01T01:27:17;11.02;;;3.35;;
5519;SDS011;2782;52.362;10.012;2023-01-01T01:28:19;8.90;;;3.63;;
5519;SDS011;2782;52.362;10.012;2023-01-01T01:29:19;11.17;;;3.53;;
5519;SDS011;2782;52.362;10.012;2023-01-01T01:30:21;8.32;;;3.50;;
5519;SDS011;2782;52.362;10.012;2023-01-01T01:31:22;7.97;;;3.50;;
5519;SDS011;2782;52.362;10.012;2023-01-01T01:32:26;10.15;;;3.88;;
5519;SDS011;2782;52.362;10.012;2023-01-01T01:33:28;12.90;;;3.43;;
5519;SDS011;2782;52.362;10.012;2023-01-01T01:34:29;11.73;;;4.28;;
5519;SDS011;2782;52.362;10.012;2023-01-01T01:35:30;7.23;;;3.80;;
5519;SDS011;2782;52.362;10.012;2023-01-01T01:36:32;9.48;;;3.50;;
5519;SDS011;2782;52.362;10.012;2023-01-01T01:37:33;11.80;;;4.00;;
5519;SDS011;2782;52.362;10.012;2023-01-01T01:38:35;9.93;;;3.28;;
5519;SDS011;2782;52.362;10.012;2023-01-01T01:39:35;6.80;;;3.40;;
5519;SDS011;2782;52.362;10.012;2023-01-01T01:40:40;11.35;;;3.25;;
5519;SDS011;2782;52.362;10.012;2023-01-01T01:41:41;7.07;;;3.22;;
5519;SDS011;2782;52.362;10.012;2023-01-01T01:42:48;11.48;;;3.65;;
5519;SDS011;2782;52.362;10.012;2023-01-01T01:43:51;12.38;;;3.53;;
5519;SDS011;2782;52.362;10.012;2023-01-01T01:44:56;9.02;;;4.20;;
5519;SDS011;2782;52.362;10.012;2023-01-01T01:45:58;10.70;;;3.85;;
5519;SDS011;2782;52.362;10.012;2023-01-01T01:47:03;6.90;;;3.25;;
5519;SDS011;2782;52.362;10.012;2023-01-01T01:48:04;6.63;;;3.10;;
5519;SDS011;2782;52.362;10.012;2023-01-01T01:49:12;8.27;;;3.15;;
5519;SDS011;2782;52.362;10.012;2023-01-01T01:50:18;11.27;;;3.65;;
5519;SDS011;2782;52.362;10.012;2023-01-01T01:51:25;12.05;;;4.05;;
5519;SDS011;2782;52.362;10.012;2023-01-01T01:52:28;9.55;;;3.85;;
5519;SDS011;2782;52.362;10.012;2023-01-01T01:53:33;10.85;;;3.92;;
5519;SDS011;2782;52.362;10.012;2023-01-01T01:54:36;10.18;;;3.47;;
5519;SDS011;2782;52.362;10.012;2023-01-01T01:55:40;8.10;;;3.90;;
5519;SDS011;2782;52.362;10.012;2023-01-01T01:56:46;5.85;;;3.50;;
5519;SDS011;2782;52.362;10.012;2023-01-01T01:57:52;7.38;;;3.60;;
5519;SDS011;2782;52.362;10.012;2023-01-01T01:58:52;8.20;;;3.63;;
5519;SDS011;2782;52.362;10.012;2023-01-01T01:59:54;7.70;;;3.13;;
5519;SDS011;2782;52.362;10.012;2023-01-01T02:00:56;8.85;;;3.70;;
5519;SDS011;2782;52.362;10.012;2023-01-01T02:01:59;11.25;;;3.58;;
5519;SDS011;2782;52.362;10.012;2023-01-01T02:03:01;7.82;;;3.42;;
5519;SDS011;2782;52.362;10.012;2023-01-01T02:04:06;12.63;;;4.10;;
5519;SDS011;2782;52.362;10.012;2023-01-01T02:05:08;7.70;;;3.77;;
5519;SDS011;2782;52.362;10.012;2023-01-01T02:06:10;7.65;;;3.60;;
5519;SDS011;2782;52.362;10.012;2023-01-01T02:07:11;9.15;;;3.70;;
5519;SDS011;2782;52.362;10.012;2023-01-01T02:08:13;12.30;;;4.50;;
5519;SDS011;2782;52.362;10.012;2023-01-01T02:09:15;18.13;;;4.60;;
5519;SDS011;2782;52.362;10.012;2023-01-01T02:10:17;12.98;;;4.60;;
5519;SDS011;2782;52.362;10.012;2023-01-01T02:11:19;10.32;;;4.05;;
5519;SDS011;2782;52.362;10.012;2023-01-01T02:12:19;14.80;;;4.97;;
5519;SDS011;2782;52.362;10.012;2023-01-01T02:13:21;19.67;;;5.40;;
5519;SDS011;2782;52.362;10.012;2023-01-01T02:14:23;15.80;;;5.20;;
5519;SDS011;2782;52.362;10.012;2023-01-01T02:15:24;15.53;;;4.33;;
5519;SDS011;2782;52.362;10.012;2023-01-01T02:16:32;14.13;;;4.53;;
5519;SDS011;2782;52.362;10.012;2023-01-01T02:17:39;12.05;;;3.75;;
5519;SDS011;2782;52.362;10.012;2023-01-01T02:18:48;12.77;;;4.40;;
5519;SDS011;2782;52.362;10.012;2023-01-01T02:20:10;9.38;;;4.50;;
5519;SDS011;2782;52.362;10.012;2023-01-01T02:21:24;17.20;;;4.43;;
5519;SDS011;2782;52.362;10.012;2023-01-01T02:22:30;12.18;;;4.00;;
5519;SDS011;2782;52.362;10.012;2023-01-01T02:23:50;12.77;;;4.05;;
5519;SDS011;2782;52.362;10.012;2023-01-01T02:25:03;11.10;;;4.55;;
5519;SDS011;2782;52.362;10.012;2023-01-01T02:26:22;15.20;;;4.53;;
5519;SDS011;2782;52.362;10.012;2023-01-01T02:27:42;15.40;;;4.97;;
5519;SDS011;2782;52.362;10.012;2023-01-01T02:28:53;12.93;;;4.72;;
5519;SDS011;2782;52.362;10.012;2023-01-01T02:30:02;10.25;;;4.20;;
5519;SDS011;2782;52.362;10.012;2023-01-01T02:31:05;12.77;;;3.80;;
5519;SDS011;2782;52.362;10.012;2023-01-01T02:32:08;15.73;;;4.10;;
5519;SDS011;2782;52.362;10.012;2023-01-01T02:33:13;8.82;;;3.13;;
5519;SDS011;2782;52.362;10.012;2023-01-01T02:34:19;12.43;;;4.60;;
5519;SDS011;2782;52.362;10.012;2023-01-01T02:35:27;9.18;;;3.80;;
5519;SDS011;2782;52.362;10.012;2023-01-01T02:36:38;12.85;;;3.53;;
5519;SDS011;2782;52.362;10.012;2023-01-01T02:37:45;10.32;;;3.97;;
5519;SDS011;2782;52.362;10.012;2023-01-01T02:38:49;9.80;;;4.22;;
5519;SDS011;2782;52.362;10.012;2023-01-01T02:39:53;17.95;;;4.80;;
5519;SDS011;2782;52.362;10.012;2023-01-01T02:40:58;10.32;;;3.65;;
5519;SDS011;2782;52.362;10.012;2023-01-01T02:42:00;9.55;;;4.20;;
5519;SDS011;2782;52.362;10.012;2023-01-01T02:43:05;12.82;;;3.90;;
5519;SDS011;2782;52.362;10.012;2023-01-01T02:44:07;11.18;;;4.07;;
5519;SDS011;2782;52.362;10.012;2023-01-01T02:45:10;10.65;;;3.85;;
5519;SDS011;2782;52.362;10.012;2023-01-01T02:46:11;7.17;;;3.43;;
5519;SDS011;2782;52.362;10.012;2023-01-01T02:47:14;10.75;;;4.20;;
5519;SDS011;2782;52.362;10.012;2023-01-01T02:49:38;10.98;;;3.80;;
5519;SDS011;2782;52.362;10.012;2023-01-01T02:50:45;11.57;;;4.05;;
5519;SDS011;2782;52.362;10.012;2023-01-01T02:51:51;11.73;;;3.72;;
5519;SDS011;2782;52.362;10.012;2023-01-01T02:53:00;10.25;;;3.92;;
5519;SDS011;2782;52.362;10.012;2023-01-01T02:54:10;13.30;;;3.47;;
5519;SDS011;2782;52.362;10.012;2023-01-01T02:55:26;8.68;;;3.67;;
5519;SDS011;2782;52.362;10.012;2023-01-01T02:56:37;9.20;;;3.60;;
5519;SDS011;2782;52.362;10.012;2023-01-01T02:57:42;11.73;;;4.07;;
5519;SDS011;2782;52.362;10.012;2023-01-01T02:58:51;9.73;;;3.75;;
5519;SDS011;2782;52.362;10.012;2023-01-01T03:00:18;11.20;;;3.80;;
5519;SDS011;2782;52.362;10.012;2023-01-01T03:04:39;7.45;;;2.80;;
5519;SDS011;2782;52.362;10.012;2023-01-01T03:05:47;6.78;;;3.10;;
5519;SDS011;2782;52.362;10.012;2023-01-01T03:07:16;8.30;;;2.97;;
5519;SDS011;2782;52.362;10.012;2023-01-01T03:08:29;7.35;;;3.05;;
5519;SDS011;2782;52.362;10.012;2023-01-01T03:09:34;7.97;;;3.05;;
5519;SDS011;2782;52.362;10.012;2023-01-01T03:10:44;12.35;;;3.45;;
5519;SDS011;2782;52.362;10.012;2023-01-01T03:11:50;5.88;;;2.63;;
5519;SDS011;2782;52.362;10.012;2023-01-01T03:12:57;10.43;;;3.50;;
5519;SDS011;2782;52.362;10.012;2023-01-01T03:14:03;8.57;;;3.20;;
5519;SDS011;2782;52.362;10.012;2023-01-01T03:15:11;8.02;;;3.03;;
5519;SDS011;2782;52.362;10.012;2023-01-01T03:16:23;8.85;;;3.42;;
5519;SDS011;2782;52.362;10.012;2023-01-01T03:17:31;8.82;;;3.20;;
5519;SDS011;2782;52.362;10.012;2023-01-01T03:18:38;7.90;;;3.55;;
5519;SDS011;2782;52.362;10.012;2023-01-01T03:19:43;6.57;;;2.90;;
5519;SDS011;2782;52.362;10.012;2023-01-01T03:20:49;6.93;;;2.90;;
5519;SDS011;2782;52.362;10.012;2023-01-01T03:21:55;7.65;;;3.00;;
5519;SDS011;2782;52.362;10.012;2023-01-01T03:23:01;6.65;;;2.75;;
5519;SDS011;2782;52.362;10.012;2023-01-01T03:24:04;8.27;;;3.15;;
5519;SDS011;2782;52.362;10.012;2023-01-01T03:25:09;8.13;;;2.80;;
5519;SDS011;2782;52.362;10.012;2023-01-01T03:26:14;8.73;;;2.83;;
5519;SDS011;2782;52.362;10.012;2023-01-01T03:27:18;6.55;;;2.63;;
5519;SDS011;2782;52.362;10.012;2023-01-01T03:28:24;9.32;;;3.13;;
5519;SDS011;2782;52.362;10.012;2023-01-01T03:29:30;6.45;;;2.55;;
5519;SDS011;2782;52.362;10.012;2023-01-01T03:30:36;6.47;;;2.88;;
5519;SDS011;2782;52.362;10.012;2023-01-01T03:31:42;10.43;;;2.80;;
5519;SDS011;2782;52.362;10.012;2023-01-01T03:32:46;6.40;;;2.10;;
5519;SDS011;2782;52.362;10.012;2023-01-01T03:34:03;4.05;;;2.80;;
5519;SDS011;2782;52.362;10.012;2023-01-01T03:35:06;9.50;;;2.95;;
5519;SDS011;2782;52.362;10.012;2023-01-01T03:36:09;4.28;;;2.10;;
5519;SDS011;2782;52.362;10.012;2023-01-01T03:37:14;11.02;;;2.90;;
5519;SDS011;2782;52.362;10.012;2023-01-01T03:38:21;6.57;;;2.92;;
5519;SDS011;2782;52.362;10.012;2023-01-01T03:39:26;6.20;;;2.80;;
5519;SDS011;2782;52.362;10.012;2023-01-01T03:40:33;4.30;;;2.63;;
5519;SDS011;2782;52.362;10.012;2023-01-01T03:41:38;4.45;;;2.13;;
5519;SDS011;2782;52.362;10.012;2023-01-01T03:42:44;4.63;;;2.35;;
5519;SDS011;2782;52.362;10.012;2023-01-01T03:43:49;4.85;;;2.78;;
5519;SDS011;2782;52.362;10.012;2023-01-01T03:44:54;3.80;;;2.55;;
5519;SDS011;2782;52.362;10.012;2023-01-01T03:46:02;4.75;;;2.63;;
5519;SDS011;2782;52.362;10.012;2023-01-01T03:47:05;7.22;;;2.80;;
5519;SDS011;2782;52.362;10.012;2023-01-01T03:48:07;4.13;;;2.00;;
5519;SDS011;2782;52.362;10.012;2023-01-01T03:49:10;6.63;;;2.72;;
5519;SDS011;2782;52.362;10.012;2023-01-01T03:50:12;5.28;;;2.22;;
5519;SDS011;2782;52.362;10.012;2023-01-01T03:51:16;8.05;;;2.45;;
5519;SDS011;2782;52.362;10.012;2023-01-01T03:52:25;5.20;;;2.30;;
5519;SDS011;2782;52.362;10.012;2023-01-01T03:53:35;6.53;;;2.10;;
5519;SDS011;2782;52.362;10.012;2023-01-01T03:54:43;5.25;;;2.47;;
5519;SDS011;2782;52.362;10.012;2023-01-01T03:55:48;7.97;;;2.75;;
5519;SDS011;2782;52.362;10.012;2023-01-01T03:56:56;6.32;;;2.78;;
5519;SDS011;2782;52.362;10.012;2023-01-01T03:58:05;4.45;;;2.40;;
5519;SDS011;2782;52.362;10.012;2023-01-01T03:59:14;4.90;;;2.58;;
5519;SDS011;2782;52.362;10.012;2023-01-01T04:00:21;4.90;;;2.55;;
5519;SDS011;2782;52.362;10.012;2023-01-01T04:01:29;4.40;;;2.30;;
5519;SDS011;2782;52.362;10.012;2023-01-01T04:02:35;6.28;;;2.30;;
5519;SDS011;2782;52.362;10.012;2023-01-01T04:03:40;3.85;;;2.13;;
5519;SDS011;2782;52.362;10.012;2023-01-01T04:04:41;7.22;;;2.75;;
5519;SDS011;2782;52.362;10.012;2023-01-01T04:05:43;5.25;;;2.60;;
5519;SDS011;2782;52.362;10.012;2023-01-01T04:06:44;7.97;;;2.45;;
5519;SDS011;2782;52.362;10.012;2023-01-01T04:07:47;3.45;;;1.90;;
5519;SDS011;2782;52.362;10.012;2023-01-01T04:08:49;3.22;;;1.90;;
5519;SDS011;2782;52.362;10.012;2023-01-01T04:09:54;5.40;;;2.20;;
5519;SDS011;2782;52.362;10.012;2023-01-01T04:10:58;6.72;;;2.78;;
5519;SDS011;2782;52.362;10.012;2023-01-01T04:12:23;6.70;;;2.83;;
5519;SDS011;2782;52.362;10.012;2023-01-01T04:13:25;3.55;;;2.10;;
5519;SDS011;2782;52.362;10.012;2023-01-01T04:14:28;3.75;;;2.35;;
5519;SDS011;2782;52.362;10.012;2023-01-01T04:15:30;4.63;;;1.90;;
5519;SDS011;2782;52.362;10.012;2023-01-01T04:16:34;4.60;;;2.00;;
5519;SDS011;2782;52.362;10.012;2023-01-01T04:17:35;7.88;;;2.22;;
5519;SDS011;2782;52.362;10.012;2023-01-01T04:18:36;2.53;;;1.70;;
5519;SDS011;2782;52.362;10.012;2023-01-01T04:19:37;10.07;;;2.10;;
5519;SDS011;2782;52.362;10.012;2023-01-01T04:20:39;5.05;;;2.00;;
5519;SDS011;2782;52.362;10.012;2023-01-01T04:21:39;6.90;;;2.07;;
5519;SDS011;2782;52.362;10.012;2023-01-01T04:22:41;2.95;;;1.80;;
5519;SDS011;2782;52.362;10.012;2023-01-01T04:23:42;4.17;;;2.50;;
5519;SDS011;2782;52.362;10.012;2023-01-01T04:24:43;6.22;;;1.75;;
5519;SDS011;2782;52.362;10.012;2023-01-01T04:25:44;6.30;;;2.33;;
5519;SDS011;2782;52.362;10.012;2023-01-01T04:26:45;4.32;;;1.85;;
5519;SDS011;2782;52.362;10.012;2023-01-01T04:27:47;5.50;;;2.47;;
5519;SDS011;2782;52.362;10.012;2023-01-01T04:28:48;3.88;;;1.70;;
5519;SDS011;2782;52.362;10.012;2023-01-01T04:29:50;4.97;;;1.98;;
5519;SDS011;2782;52.362;10.012;2023-01-01T04:30:52;5.53;;;2.30;;
5519;SDS011;2782;52.362;10.012;2023-01-01T04:31:54;4.00;;;1.93;;
5519;SDS011;2782;52.362;10.012;2023-01-01T04:32:56;3.03;;;1.80;;
5519;SDS011;2782;52.362;10.012;2023-01-01T04:33:56;4.73;;;1.73;;
5519;SDS011;2782;52.362;10.012;2023-01-01T04:34:58;6.35;;;2.38;;
5519;SDS011;2782;52.362;10.012;2023-01-01T04:36:01;5.38;;;2.13;;
5519;SDS011;2782;52.362;10.012;2023-01-01T04:37:02;4.60;;;1.65;;
5519;SDS011;2782;52.362;10.012;2023-01-01T04:38:04;2.90;;;1.80;;
5519;SDS011;2782;52.362;10.012;2023-01-01T04:39:05;2.07;;;1.70;;
5519;SDS011;2782;52.362;10.012;2023-01-01T04:40:07;3.40;;;1.95;;
5519;SDS011;2782;52.362;10.012;2023-01-01T04:41:10;5.05;;;1.95;;
5519;SDS011;2782;52.362;10.012;2023-01-01T04:42:11;3.05;;;1.70;;
5519;SDS011;2782;52.362;10.012;2023-01-01T04:43:12;4.13;;;2.00;;
5519;SDS011;2782;52.362;10.012;2023-01-01T04:44:13;3.17;;;1.80;;
5519;SDS011;2782;52.362;10.012;2023-01-01T04:45:14;3.37;;;1.93;;
5519;SDS011;2782;52.362;10.012;2023-01-01T04:46:17;2.65;;;1.60;;
5519;SDS011;2782;52.362;10.012;2023-01-01T04:47:20;3.92;;;1.45;;
5519;SDS011;2782;52.362;10.012;2023-01-01T04:48:22;3.30;;;1.92;;
5519;SDS011;2782;52.362;10.012;2023-01-01T04:49:23;3.28;;;1.73;;
5519;SDS011;2782;52.362;10.012;2023-01-01T04:50:24;4.25;;;2.13;;
5519;SDS011;2782;52.362;10.012;2023-01-01T04:51:25;2.20;;;1.50;;
5519;SDS011;2782;52.362;10.012;2023-01-01T04:52:27;2.20;;;1.75;;
5519;SDS011;2782;52.362;10.012;2023-01-01T04:53:28;4.17;;;1.83;;
5519;SDS011;2782;52.362;10.012;2023-01-01T04:54:31;4.35;;;1.77;;
5519;SDS011;2782;52.362;10.012;2023-01-01T04:55:32;4.35;;;2.05;;
5519;SDS011;2782;52.362;10.012;2023-01-01T04:56:33;2.97;;;1.73;;
5519;SDS011;2782;52.362;10.012;2023-01-01T04:57:34;2.10;;;1.50;;
5519;SDS011;2782;52.362;10.012;2023-01-01T04:58:36;6.60;;;2.60;;
5519;SDS011;2782;52.362;10.012;2023-01-01T04:59:38;3.53;;;2.20;;
5519;SDS011;2782;52.362;10.012;2023-01-01T05:00:40;6.70;;;1.85;;
5519;SDS011;2782;52.362;10.012;2023-01-01T05:01:41;2.75;;;1.75;;
5519;SDS011;2782;52.362;10.012;2023-01-01T05:02:43;1.60;;;1.40;;
5519;SDS011;2782;52.362;10.012;2023-01-01T05:03:45;2.83;;;1.63;;
5519;SDS011;2782;52.362;10.012;2023-01-01T05:04:46;3.20;;;2.10;;
5519;SDS011;2782;52.362;10.012;2023-01-01T05:05:57;3.80;;;2.38;;
5519;SDS011;2782;52.362;10.012;2023-01-01T05:06:59;2.78;;;1.30;;
5519;SDS011;2782;52.362;10.012;2023-01-01T05:08:00;6.88;;;1.70;;
5519;SDS011;2782;52.362;10.012;2023-01-01T05:09:01;3.60;;;1.53;;
5519;SDS011;2782;52.362;10.012;2023-01-01T05:10:03;2.40;;;1.60;;
5519;SDS011;2782;52.362;10.012;2023-01-01T05:11:05;3.08;;;2.00;;
5519;SDS011;2782;52.362;10.012;2023-01-01T05:12:08;2.55;;;1.40;;
5519;SDS011;2782;52.362;10.012;2023-01-01T05:13:09;3.10;;;1.60;;
5519;SDS011;2782;52.362;10.012;2023-01-01T05:14:10;2.93;;;1.63;;
5519;SDS011;2782;52.362;10.012;2023-01-01T05:15:11;2.83;;;1.90;;
5519;SDS011;2782;52.362;10.012;2023-01-01T05:16:13;2.93;;;1.60;;
5519;SDS011;2782;52.362;10.012;2023-01-01T05:17:15;2.80;;;1.52;;
5519;SDS011;2782;52.362;10.012;2023-01-01T05:18:17;3.47;;;1.80;;
5519;SDS011;2782;52.362;10.012;2023-01-01T05:19:19;1.92;;;1.55;;
5519;SDS011;2782;52.362;10.012;2023-01-01T05:20:20;2.63;;;1.40;;
5519;SDS011;2782;52.362;10.012;2023-01-01T05:21:21;3.70;;;1.47;;
5519;SDS011;2782;52.362;10.012;2023-01-01T05:22:24;1.77;;;1.13;;
5519;SDS011;2782;52.362;10.012;2023-01-01T05:23:24;5.43;;;1.80;;
5519;SDS011;2782;52.362;10.012;2023-01-01T05:24:26;2.67;;;1.08;;
5519;SDS011;2782;52.362;10.012;2023-01-01T05:25:27;3.50;;;1.67;;
5519;SDS011;2782;52.362;10.012;2023-01-01T05:26:29;3.88;;;1.60;;
5519;SDS011;2782;52.362;10.012;2023-01-01T05:27:32;1.88;;;1.17;;
5519;SDS011;2782;52.362;10.012;2023-01-01T05:28:33;2.60;;;1.35;;
5519;SDS011;2782;52.362;10.012;2023-01-01T05:29:34;4.63;;;1.30;;
5519;SDS011;2782;52.362;10.012;2023-01-01T05:30:37;4.53;;;1.65;;
5519;SDS011;2782;52.362;10.012;2023-01-01T05:31:39;2.45;;;1.25;;
5519;SDS011;2782;52.362;10.012;2023-01-01T05:32:40;4.25;;;1.50;;
5519;SDS011;2782;52.362;10.012;2023-01-01T05:33:42;3.83;;;1.40;;
5519;SDS011;2782;52.362;10.012;2023-01-01T05:34:44;2.30;;;1.60;;
5519;SDS011;2782;52.362;10.012;2023-01-01T05:35:51;2.78;;;1.33;;
5519;SDS011;2782;52.362;10.012;2023-01-01T05:36:52;2.78;;;1.60;;
5519;SDS011;2782;52.362;10.012;2023-01-01T05:37:55;1.30;;;1.20;;
5519;SDS011;2782;52.362;10.012;2023-01-01T05:38:56;2.90;;;1.43;;
5519;SDS011;2782;52.362;10.012;2023-01-01T05:39:58;2.55;;;1.55;;
5519;SDS011;2782;52.362;10.012;2023-01-01T05:41:03;2.63;;;1.17;;
5519;SDS011;2782;52.362;10.012;2023-01-01T05:42:06;1.55;;;0.98;;
5519;SDS011;2782;52.362;10.012;2023-01-01T05:43:06;3.53;;;1.97;;
5519;SDS011;2782;52.362;10.012;2023-01-01T05:44:08;1.10;;;0.90;;
5519;SDS011;2782;52.362;10.012;2023-01-01T05:45:09;2.47;;;1.25;;
5519;SDS011;2782;52.362;10.012;2023-01-01T05:46:12;3.70;;;1.40;;
5519;SDS011;2782;52.362;10.012;2023-01-01T05:47:13;2.25;;;1.55;;
5519;SDS011;2782;52.362;10.012;2023-01-01T05:48:17;2.53;;;1.00;;
5519;SDS011;2782;52.362;10.012;2023-01-01T05:49:19;2.30;;;1.13;;
5519;SDS011;2782;52.362;10.012;2023-01-01T05:50:21;2.85;;;1.23;;
5519;SDS011;2782;52.362;10.012;2023-01-01T05:51:22;1.00;;;0.90;;
5519;SDS011;2782;52.362;10.012;2023-01-01T05:52:25;3.17;;;1.27;;
5519;SDS011;2782;52.362;10.012;2023-01-01T05:53:26;3.07;;;0.83;;
5519;SDS011;2782;52.362;10.012;2023-01-01T05:54:28;1.33;;;1.20;;
5519;SDS011;2782;52.362;10.012;2023-01-01T05:55:29;3.83;;;1.30;;
5519;SDS011;2782;52.362;10.012;2023-01-01T05:56:30;2.88;;;1.05;;
5519;SDS011;2782;52.362;10.012;2023-01-01T05:57:31;1.50;;;1.20;;
5519;SDS011;2782;52.362;10.012;2023-01-01T05:58:33;3.50;;;1.20;;
5519;SDS011;2782;52.362;10.012;2023-01-01T05:59:34;2.03;;;1.05;;
5519;SDS011;2782;52.362;10.012;2023-01-01T06:00:36;1.75;;;1.10;;
5519;SDS011;2782;52.362;10.012;2023-01-01T06:01:36;2.00;;;1.00;;
5519;SDS011;2782;52.362;10.012;2023-01-01T06:02:38;2.05;;;1.20;;
5519;SDS011;2782;52.362;10.012;2023-01-01T06:03:38;1.70;;;1.30;;
5519;SDS011;2782;52.362;10.012;2023-01-01T06:04:42;2.10;;;1.30;;
5519;SDS011;2782;52.362;10.012;2023-01-01T06:05:42;1.27;;;1.17;;
5519;SDS011;2782;52.362;10.012;2023-01-01T06:06:44;1.30;;;0.93;;
5519;SDS011;2782;52.362;10.012;2023-01-01T06:07:45;2.25;;;1.00;;
5519;SDS011;2782;52.362;10.012;2023-01-01T06:08:50;2.00;;;1.17;;
5519;SDS011;2782;52.362;10.012;2023-01-01T06:09:53;1.92;;;1.13;;
5519;SDS011;2782;52.362;10.012;2023-01-01T06:10:56;3.83;;;1.57;;
5519;SDS011;2782;52.362;10.012;2023-01-01T06:11:58;3.25;;;1.25;;
5519;SDS011;2782;52.362;10.012;2023-01-01T06:13:00;1.65;;;1.10;;
5519;SDS011;2782;52.362;10.012;2023-01-01T06:14:00;3.03;;;1.20;;
5519;SDS011;2782;52.362;10.012;2023-01-01T06:15:02;1.60;;;1.05;;
5519;SDS011;2782;52.362;10.012;2023-01-01T06:16:03;1.92;;;1.20;;
5519;SDS011;2782;52.362;10.012;2023-01-01T06:17:06;2.35;;;1.02;;
5519;SDS011;2782;52.362;10.012;2023-01-01T06:18:06;2.47;;;1.10;;
5519;SDS011;2782;52.362;10.012;2023-01-01T06:19:08;1.17;;;0.60;;
5519;SDS011;2782;52.362;10.012;2023-01-01T06:20:10;3.83;;;1.40;;
5519;SDS011;2782;52.362;10.012;2023-01-01T06:21:12;1.27;;;0.85;;
5519;SDS011;2782;52.362;10.012;2023-01-01T06:22:15;2.13;;;0.93;;
5519;SDS011;2782;52.362;10.012;2023-01-01T06:23:16;1.60;;;0.80;;
5519;SDS011;2782;52.362;10.012;2023-01-01T06:24:17;2.00;;;1.10;;
5519;SDS011;2782;52.362;10.012;2023-01-01T06:25:20;1.40;;;0.98;;
5519;SDS011;2782;52.362;10.012;2023-01-01T06:26:21;5.33;;;0.93;;
5519;SDS011;2782;52.362;10.012;2023-01-01T06:27:24;1.30;;;1.00;;
5519;SDS011;2782;52.362;10.012;2023-01-01T06:28:24;1.97;;;0.80;;
5519;SDS011;2782;52.362;10.012;2023-01-01T06:29:26;1.55;;;0.80;;
5519;SDS011;2782;52.362;10.012;2023-01-01T06:30:26;0.90;;;0.50;;
5519;SDS011;2782;52.362;10.012;2023-01-01T06:31:30;1.98;;;1.00;;